createdAt,value
2022-11-22T00:01:18.634Z,0.30
2022-11-22T00:03:46.619Z,0.30
2022-11-22T00:06:14.590Z,0.30
2022-11-22T00:08:42.783Z,0.30
2022-11-22T00:11:10.748Z,0.22
2022-11-22T00:13:40.294Z,0.20
2022-11-22T00:16:08.405Z,0.30
2022-11-22T00:18:36.504Z,0.20
2022-11-22T00:21:08.788Z,0.38
2022-11-22T00:23:36.756Z,0.30
2022-11-22T00:26:04.881Z,0.30
2022-11-22T00:28:33.122Z,0.38
2022-11-22T00:31:02.894Z,0.30
2022-11-22T00:33:30.967Z,0.30
2022-11-22T00:35:59.046Z,0.22
2022-11-22T00:38:27.092Z,0.30
2022-11-22T00:40:55.207Z,0.30
2022-11-22T00:43:23.590Z,0.30
2022-11-22T00:45:51.621Z,0.20
2022-11-22T00:48:21.249Z,0.30
2022-11-22T00:50:50.465Z,0.30
2022-11-22T00:53:18.560Z,0.20
2022-11-22T00:55:46.737Z,0.28
2022-11-22T00:58:14.947Z,0.20
2022-11-22T01:00:43.422Z,0.30
2022-11-22T01:03:12.786Z,0.20
2022-11-22T01:05:42.307Z,0.30
2022-11-22T01:08:10.875Z,0.30
2022-11-22T01:10:39.258Z,0.20
2022-11-22T01:13:07.563Z,0.30
2022-11-22T01:15:36.942Z,0.30
2022-11-22T01:18:05.288Z,0.30
2022-11-22T01:20:33.387Z,0.40
2022-11-22T01:23:02.775Z,0.30
2022-11-22T01:25:30.911Z,0.20
2022-11-22T01:27:59.026Z,0.30
2022-11-22T01:30:27.270Z,0.30
2022-11-22T01:32:55.361Z,0.40
2022-11-22T01:35:23.395Z,0.30
2022-11-22T01:37:51.498Z,0.20
2022-11-22T01:40:21.020Z,0.20
2022-11-22T01:42:53.836Z,0.30
2022-11-22T01:45:50.365Z,0.30
2022-11-22T01:48:31.065Z,0.30
2022-11-22T01:51:04.060Z,0.30
2022-11-22T01:53:36.566Z,0.28
2022-11-22T01:56:10.549Z,0.30
2022-11-22T01:58:40.137Z,0.30
2022-11-22T02:01:08.658Z,0.20
2022-11-22T02:03:40.860Z,0.30
2022-11-22T02:06:09.134Z,0.20
2022-11-22T02:08:43.138Z,0.30
2022-11-22T02:11:14.661Z,0.20
2022-11-22T02:13:44.868Z,0.28
2022-11-22T02:16:13.530Z,0.30
2022-11-22T02:18:41.954Z,0.30
2022-11-22T02:21:10.478Z,0.30
2022-11-22T02:23:47.868Z,0.30
2022-11-22T02:26:17.851Z,0.20
2022-11-22T02:28:45.918Z,0.30
2022-11-22T02:31:36.639Z,0.25
2022-11-22T02:34:04.900Z,0.30
2022-11-22T02:36:38.538Z,0.20
2022-11-22T02:39:07.656Z,0.30
2022-11-22T02:41:38.345Z,0.30
2022-11-22T02:44:08.159Z,0.30
2022-11-22T02:46:36.207Z,0.25
2022-11-22T02:49:04.340Z,0.30
2022-11-22T02:51:32.556Z,0.20
2022-11-22T02:54:00.548Z,0.20
2022-11-22T02:56:28.637Z,0.20
2022-11-22T02:58:58.093Z,0.22
2022-11-22T03:01:26.279Z,0.30
2022-11-22T03:03:54.357Z,0.30
2022-11-22T03:06:22.823Z,0.30
2022-11-22T03:08:56.150Z,0.30
2022-11-22T03:11:24.890Z,0.30
2022-11-22T03:13:53.313Z,0.20
2022-11-22T03:16:22.895Z,0.20
2022-11-22T03:18:50.974Z,0.20
2022-11-22T03:21:18.997Z,0.20
2022-11-22T03:23:47.027Z,0.20
2022-11-22T03:26:15.121Z,0.20
2022-11-22T03:28:43.132Z,0.20
2022-11-22T03:31:11.175Z,0.20
2022-11-22T03:33:40.586Z,0.20
2022-11-22T03:36:09.070Z,0.20
2022-11-22T03:38:37.674Z,0.20
2022-11-22T03:41:06.095Z,0.20
2022-11-22T03:43:34.188Z,0.20
2022-11-22T03:46:02.233Z,0.20
2022-11-22T03:48:30.462Z,0.20
2022-11-22T03:51:06.369Z,0.20
2022-11-22T03:53:34.812Z,0.20
2022-11-22T03:56:02.990Z,0.20
2022-11-22T03:58:31.046Z,0.20
2022-11-22T04:00:59.817Z,0.20
2022-11-22T04:03:27.912Z,0.20
2022-11-22T04:05:56.313Z,0.20
2022-11-22T04:08:25.879Z,0.20
2022-11-22T04:10:54.278Z,0.20
2022-11-22T04:13:22.459Z,0.20
2022-11-22T04:15:49.469Z,0.22
2022-11-22T04:18:17.485Z,0.20
2022-11-22T04:21:03.097Z,0.20
2022-11-22T04:23:34.227Z,0.30
2022-11-22T04:26:02.681Z,0.20
2022-11-22T04:29:01.357Z,0.20
2022-11-22T04:31:36.403Z,0.20
2022-11-22T04:34:04.412Z,0.30
2022-11-22T04:36:32.557Z,0.20
2022-11-22T04:39:02.144Z,0.20
2022-11-22T04:41:30.123Z,0.20
2022-11-22T04:44:15.425Z,0.20
2022-11-22T04:46:43.609Z,0.30
2022-11-22T04:49:11.601Z,0.20
2022-11-22T04:51:57.186Z,0.20
2022-11-22T04:54:26.955Z,0.30
2022-11-22T04:56:54.932Z,0.20
2022-11-22T04:59:22.924Z,0.20
2022-11-22T05:01:51.100Z,0.20
2022-11-22T05:04:19.057Z,0.20
2022-11-22T05:06:47.025Z,0.20
2022-11-22T05:09:15.164Z,0.20
2022-11-22T05:11:44.598Z,0.20
2022-11-22T05:14:12.639Z,0.20
2022-11-22T05:16:40.666Z,0.20
2022-11-22T05:19:09.011Z,0.20
2022-11-22T05:21:37.453Z,0.20
2022-11-22T05:24:05.005Z,0.20
2022-11-22T05:26:34.735Z,0.20
2022-11-22T05:29:07.780Z,0.10
2022-11-22T05:31:37.636Z,0.10
2022-11-22T05:34:06.180Z,0.20
2022-11-22T05:36:35.511Z,0.30
2022-11-22T05:39:03.890Z,0.20
2022-11-22T05:41:31.974Z,0.20
2022-11-22T05:44:00.155Z,0.20
2022-11-22T05:46:31.775Z,0.20
2022-11-22T05:49:00.130Z,0.20
2022-11-22T05:51:34.741Z,0.20
2022-11-22T05:54:03.394Z,0.20
2022-11-22T05:56:31.435Z,0.20
2022-11-22T05:58:59.533Z,0.20
2022-11-22T06:01:29.141Z,0.20
2022-11-22T06:03:57.233Z,0.20
2022-11-22T06:06:25.312Z,0.20
2022-11-22T06:08:53.455Z,0.20
2022-11-22T06:11:23.297Z,0.20
2022-11-22T06:13:53.159Z,0.20
2022-11-22T06:16:21.384Z,0.20
2022-11-22T06:18:51.228Z,0.20
2022-11-22T06:21:23.223Z,0.20
2022-11-22T06:23:51.533Z,0.20
2022-11-22T06:26:21.068Z,0.20
2022-11-22T06:28:50.238Z,0.20
2022-11-22T06:31:20.288Z,0.20
2022-11-22T06:33:50.431Z,0.20
2022-11-22T06:36:20.266Z,0.20
2022-11-22T06:38:48.667Z,0.20
2022-11-22T06:41:18.410Z,0.20
2022-11-22T06:43:49.543Z,0.20
2022-11-22T06:46:19.130Z,0.20
2022-11-22T06:48:47.441Z,0.20
2022-11-22T06:51:19.439Z,0.20
2022-11-22T06:53:49.337Z,0.25
2022-11-22T06:56:20.057Z,0.17
2022-11-22T06:58:49.902Z,0.20
2022-11-22T07:01:19.433Z,0.13
2022-11-22T07:03:48.158Z,0.20
2022-11-22T07:06:19.566Z,0.10
2022-11-22T07:08:48.297Z,0.20
2022-11-22T07:11:18.215Z,0.20
2022-11-22T07:13:46.949Z,0.20
2022-11-22T07:16:17.029Z,0.20
2022-11-22T07:18:45.330Z,0.20
2022-11-22T07:21:16.172Z,0.20
2022-11-22T07:23:47.301Z,0.20
2022-11-22T07:26:16.891Z,0.10
2022-11-22T07:28:45.657Z,0.20
2022-11-22T07:31:14.939Z,0.20
2022-11-22T07:33:43.963Z,0.20
2022-11-22T07:36:14.472Z,0.20
2022-11-22T07:38:42.568Z,0.20
2022-11-22T07:41:12.110Z,0.20
2022-11-22T07:43:40.405Z,0.20
2022-11-22T07:46:22.888Z,0.20
2022-11-22T07:48:51.019Z,0.13
2022-11-22T07:51:19.408Z,0.10
2022-11-22T07:53:47.627Z,0.20
2022-11-22T07:56:17.813Z,0.20
2022-11-22T07:58:45.937Z,0.10
2022-11-22T08:01:15.677Z,0.20
2022-11-22T08:03:44.836Z,0.20
2022-11-22T08:06:14.102Z,0.10
2022-11-22T08:08:42.386Z,0.20
2022-11-22T08:11:12.100Z,0.10
2022-11-22T08:13:42.431Z,0.10
2022-11-22T08:16:13.421Z,0.10
2022-11-22T08:18:42.542Z,0.10
2022-11-22T08:21:12.663Z,0.10
2022-11-22T08:23:41.596Z,0.10
2022-11-22T08:26:12.518Z,0.10
2022-11-22T08:28:43.635Z,0.10
2022-11-22T08:31:14.004Z,0.10
2022-11-22T08:33:42.767Z,0.20
2022-11-22T08:36:11.196Z,0.10
2022-11-22T08:38:39.624Z,0.10
2022-11-22T08:41:08.445Z,0.10
2022-11-22T08:43:36.806Z,0.10
2022-11-22T08:46:06.739Z,0.13
2022-11-22T08:48:36.210Z,0.10
2022-11-22T08:51:06.828Z,0.20
2022-11-22T08:53:36.207Z,0.10
2022-11-22T08:56:06.151Z,0.20
2022-11-22T08:58:35.061Z,0.10
2022-11-22T09:01:07.431Z,0.10
2022-11-22T09:03:36.486Z,0.10
2022-11-22T09:09:08.415Z,0.10
2022-11-22T09:11:42.708Z,0.10
2022-11-22T09:14:10.689Z,0.10
2022-11-22T09:16:40.142Z,0.10
2022-11-22T09:19:08.212Z,0.10
2022-11-22T09:21:36.471Z,0.10
2022-11-22T09:24:04.726Z,0.10
2022-11-22T09:26:33.047Z,0.10
2022-11-22T09:29:01.135Z,0.10
2022-11-22T09:31:29.300Z,0.10
2022-11-22T09:33:58.749Z,0.10
2022-11-22T09:36:27.723Z,0.10
2022-11-22T09:38:56.985Z,0.10
2022-11-22T09:41:51.306Z,0.10
2022-11-22T09:44:25.216Z,0.10
2022-11-22T09:46:55.628Z,0.10
2022-11-22T09:49:40.031Z,0.00
2022-11-22T09:52:11.128Z,0.10
2022-11-22T09:54:45.051Z,0.10
2022-11-22T09:57:19.468Z,0.00
2022-11-22T09:59:52.165Z,0.10
2022-11-22T10:02:26.716Z,0.03
2022-11-22T10:04:58.923Z,0.05
2022-11-22T10:07:32.182Z,0.10
2022-11-22T10:10:05.636Z,0.10
2022-11-22T10:12:41.359Z,0.10
2022-11-22T10:17:54.126Z,0.00
2022-11-22T10:20:25.141Z,0.10
2022-11-22T10:22:53.633Z,0.00
2022-11-22T10:25:23.918Z,0.10
2022-11-22T10:28:00.643Z,0.08
2022-11-22T10:30:36.420Z,0.10
2022-11-22T10:33:14.270Z,0.10
2022-11-22T10:36:02.537Z,0.10
2022-11-22T10:38:49.183Z,0.10
2022-11-22T10:41:29.034Z,0.10
2022-11-22T10:44:09.050Z,0.10
2022-11-22T10:46:56.335Z,0.10
2022-11-22T10:49:39.752Z,0.10
2022-11-22T10:52:19.200Z,0.10
2022-11-22T10:54:58.393Z,0.10
2022-11-22T10:57:33.605Z,0.05
2022-11-22T11:00:17.545Z,0.10
2022-11-22T11:03:02.561Z,0.10
2022-11-22T11:05:37.462Z,0.10
2022-11-22T11:08:39.344Z,0.10
2022-11-22T11:10:59.146Z,0.00
2022-11-22T11:13:30.419Z,0.05
2022-11-22T11:16:01.944Z,0.10
2022-11-22T11:18:37.120Z,0.10
2022-11-22T11:21:07.645Z,0.03
2022-11-22T11:23:37.123Z,0.10
2022-11-22T11:26:20.347Z,0.00
2022-11-22T11:28:48.630Z,0.08
2022-11-22T11:31:19.111Z,0.00
2022-11-22T11:33:47.796Z,0.00
2022-11-22T11:36:19.647Z,0.00
2022-11-22T11:38:55.556Z,0.00
2022-11-22T11:41:26.616Z,0.10
2022-11-22T11:43:56.087Z,0.08
2022-11-22T11:46:25.484Z,0.10
2022-11-22T11:48:54.686Z,0.10
2022-11-22T11:51:32.559Z,0.10
2022-11-22T11:54:06.400Z,0.10
2022-11-22T11:56:41.946Z,0.08
2022-11-22T11:59:15.745Z,0.10
2022-11-22T12:01:56.776Z,0.00
2022-11-22T12:04:28.652Z,0.10
2022-11-22T12:07:04.171Z,0.10
2022-11-22T12:09:36.922Z,0.10
2022-11-22T12:12:35.130Z,0.10
2022-11-22T12:15:12.486Z,0.10
2022-11-22T12:17:50.182Z,0.00
2022-11-22T12:20:23.114Z,0.10
2022-11-22T12:23:07.132Z,0.10
2022-11-22T12:25:39.595Z,0.10
2022-11-22T12:28:19.179Z,0.10
2022-11-22T12:30:51.640Z,0.00
2022-11-22T12:33:25.535Z,0.00
2022-11-22T12:35:55.804Z,0.08
2022-11-22T12:38:29.348Z,0.00
2022-11-22T12:41:01.794Z,0.03
2022-11-22T12:43:35.935Z,0.05
2022-11-22T12:46:09.783Z,0.00
2022-11-22T12:48:49.303Z,0.00
2022-11-22T12:51:24.652Z,0.00
2022-11-22T12:53:54.172Z,0.10
2022-11-22T12:56:33.564Z,0.00
2022-11-22T12:59:07.706Z,0.00
2022-11-22T13:01:42.968Z,0.10
2022-11-22T13:04:17.148Z,0.10
2022-11-22T13:06:51.139Z,0.08
2022-11-22T13:09:23.261Z,0.10
2022-11-22T13:11:59.494Z,0.00
2022-11-22T13:14:34.968Z,0.10
2022-11-22T13:17:07.932Z,0.10
2022-11-22T13:19:45.236Z,0.03
2022-11-22T13:22:19.979Z,0.03
2022-11-22T13:25:05.610Z,0.10
2022-11-22T13:27:38.372Z,0.10
2022-11-22T13:30:17.646Z,0.10
2022-11-22T13:32:50.423Z,0.10
2022-11-22T13:35:30.346Z,0.10
2022-11-22T13:38:01.195Z,0.10
2022-11-22T13:40:32.345Z,0.10
2022-11-22T13:43:50.425Z,0.10
2022-11-22T13:46:56.234Z,0.10
2022-11-22T13:49:39.145Z,0.10
2022-11-22T13:52:29.120Z,0.10
2022-11-22T13:55:40.330Z,0.10
2022-11-22T13:58:54.767Z,0.08
2022-11-22T14:01:58.614Z,0.10
2022-11-22T14:04:41.551Z,0.10
2022-11-22T14:07:38.769Z,0.10
2022-11-22T14:10:28.425Z,0.10
2022-11-22T14:13:29.312Z,0.10
2022-11-22T14:16:08.338Z,0.10
2022-11-22T14:19:00.004Z,0.10
2022-11-22T14:21:49.040Z,0.10
2022-11-22T14:24:30.643Z,0.10
2022-11-22T14:27:09.170Z,0.10
2022-11-22T14:30:02.813Z,0.10
2022-11-22T14:32:56.718Z,0.10
2022-11-22T14:35:34.366Z,0.10
2022-11-22T14:38:06.002Z,0.10
2022-11-22T14:40:37.091Z,0.10
2022-11-22T14:43:17.416Z,0.10
2022-11-22T14:45:50.602Z,0.10
2022-11-22T14:48:21.365Z,0.20
2022-11-22T14:50:56.032Z,0.10
2022-11-22T14:53:39.007Z,0.20
2022-11-22T14:56:15.438Z,0.10
2022-11-22T14:58:54.626Z,0.10
2022-11-22T15:01:52.382Z,0.20
2022-11-22T15:09:11.060Z,0.20
2022-11-22T15:09:16.276Z,0.10
2022-11-22T15:11:26.801Z,0.20
2022-11-22T15:14:26.808Z,0.20
2022-11-22T15:57:29.513Z,0.20
2022-11-22T15:59:59.816Z,0.20
2022-11-22T16:02:32.058Z,0.20
2022-11-22T16:06:10.445Z,0.20
2022-11-22T16:07:52.733Z,0.20
2022-11-22T16:10:23.887Z,0.20
2022-11-22T16:12:53.599Z,0.20
2022-11-22T16:15:36.147Z,0.20
2022-11-22T16:18:09.772Z,0.20
2022-11-22T16:20:38.994Z,0.20
2022-11-22T16:23:15.970Z,0.20
2022-11-22T16:25:46.685Z,0.20
2022-11-22T16:28:30.615Z,0.20
2022-11-22T16:31:02.047Z,0.20
2022-11-22T16:33:30.375Z,0.20
2022-11-22T16:36:00.229Z,0.20
2022-11-22T16:38:29.177Z,0.20
2022-11-22T16:40:59.648Z,0.20
2022-11-22T16:43:33.339Z,0.20
2022-11-22T16:46:03.166Z,0.20
2022-11-22T16:48:33.268Z,0.20
2022-11-22T16:51:05.384Z,0.10
2022-11-22T16:53:41.808Z,0.20
2022-11-22T16:56:15.946Z,0.20
2022-11-22T16:58:44.665Z,0.20
2022-11-22T17:01:16.251Z,0.20
2022-11-22T17:03:46.150Z,0.22
2022-11-22T17:06:18.754Z,0.20
2022-11-22T17:08:47.711Z,0.20
2022-11-22T17:11:18.980Z,0.13
2022-11-22T17:13:47.698Z,0.10
2022-11-22T17:16:18.217Z,0.20
2022-11-22T17:18:47.491Z,0.20
2022-11-22T17:21:19.052Z,0.20
2022-11-22T17:23:47.302Z,0.17
2022-11-22T17:26:15.356Z,0.20
2022-11-22T17:28:43.449Z,0.20
2022-11-22T17:31:14.611Z,0.20
2022-11-22T17:33:44.062Z,0.20
2022-11-22T17:36:24.273Z,0.20
2022-11-22T17:38:52.533Z,0.20
2022-11-22T17:41:25.528Z,0.20
2022-11-22T17:43:54.030Z,0.10
2022-11-22T17:46:22.158Z,0.20
2022-11-22T17:48:56.158Z,0.20
2022-11-22T17:51:24.655Z,0.20
2022-11-22T17:53:52.822Z,0.20
2022-11-22T17:56:21.523Z,0.20
2022-11-22T17:58:49.758Z,0.20
2022-11-22T18:01:19.594Z,0.20
2022-11-22T18:03:48.610Z,0.20
2022-11-22T18:06:19.283Z,0.30
2022-11-22T18:08:47.626Z,0.22
2022-11-22T18:11:16.075Z,0.20
2022-11-22T18:13:45.419Z,0.20
2022-11-22T18:16:15.716Z,0.20
2022-11-22T18:18:59.407Z,0.20
2022-11-22T18:21:30.571Z,0.20
2022-11-22T18:23:59.223Z,0.20
2022-11-22T18:26:43.660Z,0.20
2022-11-22T18:32:02.195Z,0.20
2022-11-22T18:34:31.117Z,0.20
2022-11-22T18:37:03.131Z,0.20
2022-11-22T18:39:33.706Z,0.10
2022-11-22T18:42:02.275Z,0.20
2022-11-22T18:44:30.367Z,0.20
2022-11-22T18:46:58.500Z,0.20
2022-11-22T18:49:26.723Z,0.20
2022-11-22T18:51:55.718Z,0.20
2022-11-22T18:54:25.642Z,0.20
2022-11-22T18:56:53.906Z,0.20
2022-11-22T18:59:21.992Z,0.20
2022-11-22T19:01:50.094Z,0.20
2022-11-22T19:04:18.606Z,0.20
2022-11-22T19:06:46.700Z,0.20
2022-11-22T19:09:14.865Z,0.20
2022-11-22T19:11:44.372Z,0.20
2022-11-22T19:14:12.502Z,0.20
2022-11-22T19:16:40.598Z,0.20
2022-11-22T19:19:12.051Z,0.20
2022-11-22T19:21:40.395Z,0.20
2022-11-22T19:24:08.702Z,0.20
2022-11-22T19:26:36.708Z,0.20
2022-11-22T19:29:06.239Z,0.20
2022-11-22T19:31:34.370Z,0.20
2022-11-22T19:34:02.445Z,0.10
2022-11-22T19:36:34.615Z,0.20
2022-11-22T19:39:04.446Z,0.10
2022-11-22T19:41:33.334Z,0.15
2022-11-22T19:44:01.625Z,0.20
2022-11-22T19:46:31.587Z,0.20
2022-11-22T19:49:01.155Z,0.20
2022-11-22T19:51:31.231Z,0.10
2022-11-22T19:54:02.148Z,0.10
2022-11-22T19:56:32.374Z,0.20
2022-11-22T19:59:03.334Z,0.20
2022-11-22T20:01:34.376Z,0.20
2022-11-22T20:04:04.935Z,0.20
2022-11-22T20:06:34.593Z,0.20
2022-11-22T20:09:04.323Z,0.13
2022-11-22T20:11:32.635Z,0.20
2022-11-22T20:14:00.966Z,0.20
2022-11-22T20:16:30.908Z,0.25
2022-11-22T20:19:01.773Z,0.20
2022-11-22T20:21:31.954Z,0.20
2022-11-22T20:24:00.774Z,0.20
2022-11-22T20:26:29.699Z,0.20
2022-11-22T20:28:59.694Z,0.20
2022-11-22T20:31:28.743Z,0.20
2022-11-22T20:33:57.182Z,0.20
2022-11-22T20:36:28.992Z,0.20
2022-11-22T20:38:57.693Z,0.10
2022-11-22T20:41:28.578Z,0.20
2022-11-22T20:43:56.907Z,0.20
2022-11-22T20:46:26.355Z,0.20
2022-11-22T20:48:55.273Z,0.20
2022-11-22T20:51:25.189Z,0.20
2022-11-22T20:53:55.664Z,0.28
2022-11-22T20:56:24.149Z,0.20
2022-11-22T20:58:52.476Z,0.20
2022-11-22T21:01:22.825Z,0.20
2022-11-22T21:03:51.501Z,0.20
2022-11-22T21:06:21.819Z,0.20
2022-11-22T21:08:50.506Z,0.20
2022-11-22T21:11:21.798Z,0.20
2022-11-22T21:13:50.430Z,0.20
2022-11-22T21:16:23.754Z,0.20
2022-11-22T21:18:53.517Z,0.20
2022-11-22T21:21:23.946Z,0.20
2022-11-22T21:23:53.601Z,0.20
2022-11-22T21:26:24.060Z,0.20
2022-11-22T21:28:52.940Z,0.20
2022-11-22T21:31:22.245Z,0.20
2022-11-22T21:33:51.136Z,0.20
2022-11-22T21:36:20.643Z,0.20
2022-11-22T21:38:49.027Z,0.20
2022-11-22T21:44:08.814Z,0.20
2022-11-22T21:46:36.972Z,0.20
2022-11-22T21:49:05.178Z,0.20
2022-11-22T21:51:33.295Z,0.20
2022-11-22T21:54:02.410Z,0.20
2022-11-22T21:56:31.549Z,0.20
2022-11-22T21:59:00.361Z,0.20
2022-11-22T22:01:30.054Z,0.25
2022-11-22T22:03:58.484Z,0.20
2022-11-22T22:06:26.618Z,0.20
2022-11-22T22:08:54.664Z,0.20
2022-11-22T22:11:22.809Z,0.22
2022-11-22T22:13:52.819Z,0.20
2022-11-22T22:16:23.466Z,0.20
2022-11-22T22:18:53.641Z,0.20
2022-11-22T22:21:22.015Z,0.20
2022-11-22T22:23:50.173Z,0.20
2022-11-22T22:26:18.890Z,0.20
2022-11-22T22:28:47.782Z,0.20
2022-11-22T22:31:21.388Z,0.20
2022-11-22T22:33:51.112Z,0.20
2022-11-22T22:36:21.125Z,0.20
2022-11-22T22:38:49.473Z,0.20
2022-11-22T22:41:18.337Z,0.20
2022-11-22T22:43:47.937Z,0.25
2022-11-22T22:46:17.717Z,0.20
2022-11-22T22:48:46.594Z,0.20
2022-11-22T22:51:16.269Z,0.20
2022-11-22T22:53:46.395Z,0.20
2022-11-22T22:56:16.049Z,0.28
2022-11-22T22:58:44.385Z,0.20
2022-11-22T23:01:15.396Z,0.20
2022-11-22T23:03:43.559Z,0.20
2022-11-22T23:06:13.116Z,0.20
2022-11-22T23:08:41.461Z,0.20
2022-11-22T23:11:11.826Z,0.20
2022-11-22T23:13:42.305Z,0.20
2022-11-22T23:16:11.659Z,0.20
2022-11-22T23:18:41.412Z,0.28
2022-11-22T23:21:11.708Z,0.20
2022-11-22T23:23:40.259Z,0.20
2022-11-22T23:26:12.827Z,0.30
2022-11-22T23:28:41.096Z,0.20
2022-11-22T23:31:10.997Z,0.20
2022-11-22T23:33:39.056Z,0.20
2022-11-22T23:36:09.473Z,0.20
2022-11-22T23:38:38.001Z,0.20
2022-11-22T23:41:06.798Z,0.20
2022-11-22T23:43:36.192Z,0.20
2022-11-22T23:46:04.255Z,0.30
2022-11-22T23:48:32.413Z,0.20
2022-11-22T23:51:03.770Z,0.20
2022-11-22T23:53:32.111Z,0.20
2022-11-22T23:56:06.051Z,0.20
2022-11-22T23:58:35.818Z,0.20
